createdAt,value
2022-09-01T00:00:32.850Z,16.56
2022-09-01T00:03:36.442Z,16.49
2022-09-01T00:06:40.987Z,16.47
2022-09-01T00:09:43.796Z,16.47
2022-09-01T00:12:49.624Z,16.42
2022-09-01T00:15:54.689Z,16.43
2022-09-01T00:18:57.655Z,16.41
2022-09-01T00:22:01.072Z,16.41
2022-09-01T00:25:04.809Z,16.36
2022-09-01T00:28:07.541Z,16.37
2022-09-01T00:31:14.833Z,16.36
2022-09-01T00:34:18.134Z,16.34
2022-09-01T00:37:21.222Z,16.33
2022-09-01T00:40:24.329Z,16.36
2022-09-01T00:43:40.284Z,16.36
2022-09-01T00:46:47.688Z,16.35
2022-09-01T00:49:53.387Z,16.31
2022-09-01T00:52:56.728Z,16.32
2022-09-01T00:55:59.569Z,16.36
2022-09-01T00:59:02.914Z,16.36
2022-09-01T01:02:07.103Z,16.31
2022-09-01T01:05:14.314Z,16.29
2022-09-01T01:08:21.662Z,16.26
2022-09-01T01:11:26.305Z,16.19
2022-09-01T01:14:35.058Z,16.12
2022-09-01T01:17:40.077Z,16.07
2022-09-01T01:21:01.216Z,16.05
2022-09-01T01:24:10.830Z,16.01
2022-09-01T01:27:17.915Z,15.95
2022-09-01T01:30:21.218Z,15.91
2022-09-01T01:33:26.938Z,15.91
2022-09-01T01:36:33.881Z,15.85
2022-09-01T01:39:36.670Z,15.86
2022-09-01T01:42:41.045Z,15.88
2022-09-01T01:45:43.983Z,15.84
2022-09-01T01:48:50.349Z,15.78
2022-09-01T01:51:57.935Z,15.79
2022-09-01T01:55:05.005Z,15.76
2022-09-01T01:58:09.849Z,15.72
2022-09-01T02:01:13.319Z,15.67
2022-09-01T02:04:17.073Z,15.66
2022-09-01T02:07:19.756Z,15.65
2022-09-01T02:10:24.523Z,15.65
2022-09-01T02:13:30.995Z,15.64
2022-09-01T02:16:35.171Z,15.61
2022-09-01T02:19:43.245Z,15.57
2022-09-01T02:22:45.939Z,15.54
2022-09-01T02:26:14.595Z,15.52
2022-09-01T02:29:18.014Z,15.47
2022-09-01T02:32:22.042Z,15.46
2022-09-01T02:35:28.886Z,15.48
2022-09-01T02:38:33.728Z,15.51
2022-09-01T02:41:36.478Z,15.50
2022-09-01T02:44:41.457Z,15.48
2022-09-01T02:47:46.698Z,15.44
2022-09-01T02:50:50.690Z,15.44
2022-09-01T02:53:54.126Z,15.41
2022-09-01T02:56:56.961Z,15.37
2022-09-01T03:00:01.297Z,15.34
2022-09-01T03:03:04.542Z,15.38
2022-09-01T03:06:09.173Z,15.30
2022-09-01T03:09:15.671Z,15.24
2022-09-01T03:12:19.768Z,15.21
2022-09-01T03:15:24.750Z,15.23
2022-09-01T03:18:27.498Z,15.21
2022-09-01T03:21:35.770Z,15.17
2022-09-01T03:24:42.968Z,15.17
2022-09-01T03:27:49.205Z,15.15
2022-09-01T03:31:01.154Z,15.21
2022-09-01T03:34:11.827Z,15.25
2022-09-01T03:37:19.870Z,15.36
2022-09-01T03:40:30.684Z,15.40
2022-09-01T03:43:37.427Z,15.39
2022-09-01T03:46:59.033Z,15.43
2022-09-01T03:50:05.326Z,15.43
2022-09-01T03:53:10.776Z,15.42
2022-09-01T03:56:16.814Z,15.40
2022-09-01T03:59:26.841Z,15.41
2022-09-01T04:02:34.589Z,15.34
2022-09-01T04:05:41.368Z,15.30
2022-09-01T04:08:46.458Z,15.29
2022-09-01T04:11:55.775Z,15.25
2022-09-01T04:15:03.506Z,15.19
2022-09-01T04:18:20.936Z,15.12
2022-09-01T04:21:30.500Z,15.05
2022-09-01T04:24:35.199Z,15.00
2022-09-01T04:27:45.233Z,14.99
2022-09-01T04:30:56.227Z,14.98
2022-09-01T04:34:14.846Z,14.94
2022-09-01T04:37:22.178Z,14.90
2022-09-01T04:40:27.512Z,14.90
2022-09-01T04:43:33.742Z,14.88
2022-09-01T04:46:47.205Z,14.87
2022-09-01T04:49:58.826Z,14.88
2022-09-01T04:53:12.820Z,14.96
2022-09-01T04:56:20.846Z,15.03
2022-09-01T04:59:30.621Z,15.01
2022-09-01T05:02:36.743Z,15.06
2022-09-01T05:05:47.675Z,15.09
2022-09-01T05:08:54.505Z,15.14
2022-09-01T05:12:05.257Z,15.17
2022-09-01T05:15:17.308Z,15.17
2022-09-01T05:18:28.552Z,15.20
2022-09-01T05:21:42.422Z,15.25
2022-09-01T05:24:57.085Z,15.30
2022-09-01T05:28:05.610Z,15.36
2022-09-01T05:31:11.837Z,15.41
2022-09-01T05:34:27.722Z,15.45
2022-09-01T05:37:36.650Z,15.52
2022-09-01T05:40:42.128Z,15.61
2022-09-01T05:43:48.175Z,15.69
2022-09-01T05:46:51.236Z,15.76
2022-09-01T05:49:55.258Z,15.79
2022-09-01T05:52:59.433Z,15.84
2022-09-01T05:56:06.949Z,15.88
2022-09-01T05:59:26.393Z,15.94
2022-09-01T06:02:30.147Z,16.10
2022-09-01T06:05:35.917Z,16.19
2022-09-01T06:08:46.738Z,16.31
2022-09-01T06:11:50.441Z,16.44
2022-09-01T06:14:54.922Z,16.58
2022-09-01T06:17:57.832Z,16.72
2022-09-01T06:21:00.615Z,16.69
2022-09-01T06:24:07.139Z,16.73
2022-09-01T06:27:10.105Z,16.76
2022-09-01T06:30:23.115Z,16.82
2022-09-01T06:33:26.857Z,16.95
2022-09-01T06:36:35.058Z,16.99
2022-09-01T06:39:39.782Z,17.08
2022-09-01T06:42:43.183Z,17.35
2022-09-01T06:45:49.725Z,17.69
2022-09-01T06:48:53.787Z,17.90
2022-09-01T06:51:56.583Z,18.28
2022-09-01T06:55:07.129Z,18.96
2022-09-01T06:58:15.463Z,20.05
2022-09-01T07:01:21.096Z,20.89
2022-09-01T07:08:05.230Z,21.51
2022-09-01T07:18:12.650Z,20.06
2022-09-01T07:24:40.009Z,19.37
2022-09-01T07:27:50.380Z,19.19
2022-09-01T07:30:54.030Z,19.16
2022-09-01T07:42:31.115Z,21.65
2022-09-01T07:44:13.690Z,19.24
2022-09-01T07:47:19.872Z,19.28
2022-09-01T07:53:51.769Z,19.89
2022-09-01T07:56:55.433Z,19.96
2022-09-01T07:59:59.492Z,19.99
2022-09-01T08:03:02.250Z,19.95
2022-09-01T08:06:06.593Z,20.02
2022-09-01T08:09:11.565Z,20.05
2022-09-01T08:12:14.804Z,20.01
2022-09-01T08:18:50.044Z,19.87
2022-09-01T08:21:52.894Z,19.81
2022-09-01T08:24:56.014Z,19.84
2022-09-01T08:28:00.637Z,19.78
2022-09-01T08:31:11.301Z,19.68
2022-09-01T08:34:14.272Z,19.68
2022-09-01T08:37:16.969Z,19.67
2022-09-01T08:40:23.511Z,19.72
2022-09-01T08:43:41.245Z,19.82
2022-09-01T08:46:47.242Z,19.90
2022-09-01T08:49:51.241Z,19.91
2022-09-01T08:53:09.763Z,19.99
2022-09-01T08:56:14.044Z,20.06
2022-09-01T08:59:17.551Z,20.14
2022-09-01T09:02:36.377Z,20.20
2022-09-01T09:05:50.867Z,20.14
2022-09-01T09:08:57.870Z,20.15
2022-09-01T09:12:10.834Z,20.30
2022-09-01T09:15:23.593Z,20.28
2022-09-01T09:18:39.789Z,20.33
2022-09-01T09:21:50.057Z,20.43
2022-09-01T09:24:59.326Z,20.28
2022-09-01T09:28:04.302Z,20.28
2022-09-01T09:31:29.774Z,20.23
2022-09-01T09:34:40.004Z,20.26
2022-09-01T09:37:46.807Z,20.26
2022-09-01T09:41:20.269Z,20.25
2022-09-01T09:44:30.040Z,20.20
2022-09-01T09:47:45.077Z,20.26
2022-09-01T09:50:51.746Z,20.25
2022-09-01T09:54:13.713Z,20.28
2022-09-01T09:57:22.398Z,20.30
2022-09-01T10:00:29.802Z,20.37
2022-09-01T10:03:43.683Z,20.44
2022-09-01T10:06:50.159Z,20.52
2022-09-01T10:09:56.668Z,20.53
2022-09-01T10:13:02.599Z,20.61
2022-09-01T10:16:11.444Z,20.71
2022-09-01T10:19:17.033Z,20.83
2022-09-01T10:22:26.947Z,20.82
2022-09-01T10:25:37.256Z,20.79
2022-09-01T10:28:49.920Z,20.53
2022-09-01T10:32:28.002Z,20.52
2022-09-01T10:35:25.920Z,20.56
2022-09-01T10:38:32.904Z,20.66
2022-09-01T10:41:59.468Z,20.95
2022-09-01T10:45:07.309Z,21.16
2022-09-01T10:48:33.287Z,21.24
2022-09-01T10:51:51.755Z,21.17
2022-09-01T10:55:05.162Z,21.16
2022-09-01T11:02:23.545Z,22.07
2022-09-01T11:05:50.797Z,22.14
2022-09-01T11:09:05.335Z,22.03
2022-09-01T11:12:20.560Z,21.88
2022-09-01T11:15:41.244Z,22.06
2022-09-01T11:18:48.722Z,22.56
2022-09-01T11:22:13.088Z,23.06
2022-09-01T11:25:44.904Z,23.36
2022-09-01T11:28:50.665Z,23.56
2022-09-01T11:31:55.820Z,23.76
2022-09-01T11:35:05.308Z,23.82
2022-09-01T11:38:14.706Z,24.07
2022-09-01T11:41:27.805Z,24.16
2022-09-01T11:44:38.626Z,24.26
2022-09-01T11:47:45.787Z,24.45
2022-09-01T11:51:00.332Z,24.56
2022-09-01T11:54:06.366Z,24.80
2022-09-01T11:57:26.407Z,24.94
2022-09-01T12:00:33.909Z,25.11
2022-09-01T12:03:40.832Z,25.26
2022-09-01T12:06:58.572Z,25.31
2022-09-01T12:10:04.537Z,25.17
2022-09-01T12:13:12.806Z,25.11
2022-09-01T12:16:25.224Z,25.23
2022-09-01T12:19:32.470Z,24.80
2022-09-01T12:22:37.599Z,24.50
2022-09-01T12:25:45.171Z,24.65
2022-09-01T12:28:53.692Z,24.96
2022-09-01T12:31:59.240Z,25.09
2022-09-01T12:35:11.354Z,25.27
2022-09-01T12:38:28.013Z,25.34
2022-09-01T12:41:40.675Z,25.60
2022-09-01T12:44:51.854Z,25.75
2022-09-01T12:47:56.789Z,25.80
2022-09-01T12:51:03.955Z,25.90
2022-09-01T12:54:09.436Z,26.08
2022-09-01T12:57:28.254Z,26.17
2022-09-01T13:00:37.181Z,26.31
2022-09-01T13:03:42.301Z,26.40
2022-09-01T13:06:47.422Z,26.35
2022-09-01T13:09:52.461Z,26.42
2022-09-01T13:12:58.740Z,26.46
2022-09-01T13:16:13.485Z,26.33
2022-09-01T13:19:27.436Z,26.36
2022-09-01T13:22:33.857Z,26.56
2022-09-01T13:25:38.891Z,26.47
2022-09-01T13:28:44.265Z,26.15
2022-09-01T13:35:29.343Z,25.54
2022-09-01T13:38:34.876Z,25.59
2022-09-01T13:41:40.052Z,25.94
2022-09-01T13:44:46.314Z,26.10
2022-09-01T13:51:27.783Z,26.34
2022-09-01T13:54:35.228Z,26.14
2022-09-01T13:57:40.506Z,25.82
2022-09-01T14:00:48.394Z,25.55
2022-09-01T14:03:58.362Z,25.53
2022-09-01T14:07:09.487Z,25.77
2022-09-01T14:10:14.923Z,26.10
2022-09-01T14:13:20.425Z,26.16
2022-09-01T14:16:25.438Z,26.39
2022-09-01T14:19:32.330Z,26.58
2022-09-01T14:22:38.607Z,26.73
2022-09-01T14:25:48.525Z,26.57
2022-09-01T14:28:53.392Z,26.71
2022-09-01T14:31:58.568Z,26.75
2022-09-01T14:35:08.624Z,26.65
2022-09-01T14:38:15.290Z,26.50
2022-09-01T14:41:22.180Z,26.44
2022-09-01T14:44:27.121Z,26.39
2022-09-01T14:47:32.255Z,26.06
2022-09-01T14:50:46.746Z,25.94
2022-09-01T14:53:52.764Z,25.92
2022-09-01T15:00:30.600Z,25.22
2022-09-01T15:03:36.908Z,24.86
2022-09-01T15:06:43.033Z,25.04
2022-09-01T15:09:47.440Z,25.34
2022-09-01T15:12:52.319Z,25.64
2022-09-01T15:15:57.391Z,25.76
2022-09-01T15:19:01.962Z,25.77
2022-09-01T15:22:08.836Z,25.89
2022-09-01T15:25:15.886Z,25.90
2022-09-01T15:28:21.564Z,25.93
2022-09-01T15:31:32.432Z,26.05
2022-09-01T15:34:37.451Z,25.98
2022-09-01T15:37:44.449Z,25.97
2022-09-01T15:40:57.113Z,26.01
2022-09-01T15:44:06.343Z,26.10
2022-09-01T15:47:11.929Z,26.01
2022-09-01T15:50:21.526Z,25.99
2022-09-01T15:53:28.332Z,26.03
2022-09-01T15:56:33.488Z,25.72
2022-09-01T15:59:40.328Z,25.30
2022-09-01T16:02:45.549Z,25.07
2022-09-01T16:05:50.878Z,24.67
2022-09-01T16:08:57.708Z,24.26
2022-09-01T16:12:02.861Z,23.98
2022-09-01T16:15:11.083Z,24.11
2022-09-01T16:18:29.398Z,24.14
2022-09-01T16:21:45.945Z,24.20
2022-09-01T16:24:54.598Z,24.14
2022-09-01T16:28:03.322Z,23.96
2022-09-01T16:31:13.599Z,23.84
2022-09-01T16:34:19.687Z,23.75
2022-09-01T16:37:41.644Z,23.75
2022-09-01T16:40:56.618Z,23.68
2022-09-01T16:44:12.915Z,23.72
2022-09-01T16:47:35.606Z,23.51
2022-09-01T16:50:50.509Z,23.45
2022-09-01T16:54:13.536Z,23.38
2022-09-01T16:57:30.394Z,23.19
2022-09-01T17:00:48.537Z,23.11
2022-09-01T17:04:00.908Z,23.12
2022-09-01T17:07:13.341Z,23.11
2022-09-01T17:10:33.158Z,23.03
2022-09-01T17:13:43.157Z,22.97
2022-09-01T17:16:50.007Z,22.88
2022-09-01T17:19:57.533Z,22.80
2022-09-01T17:23:09.235Z,22.69
2022-09-01T17:26:21.119Z,22.60
2022-09-01T17:29:35.630Z,22.55
2022-09-01T17:34:00.002Z,22.53
2022-09-01T17:37:17.109Z,22.30
2022-09-01T17:40:31.320Z,22.19
2022-09-01T17:43:59.281Z,22.04
2022-09-01T17:47:13.420Z,21.96
2022-09-01T17:50:36.623Z,21.90
2022-09-01T17:53:49.468Z,21.82
2022-09-01T17:57:11.072Z,21.74
2022-09-01T18:00:26.441Z,21.66
2022-09-01T18:04:00.236Z,21.61
2022-09-01T18:07:30.417Z,21.54
2022-09-01T18:10:42.161Z,21.48
2022-09-01T18:13:55.709Z,21.43
2022-09-01T18:17:08.126Z,21.34
2022-09-01T18:20:20.642Z,21.28
2022-09-01T18:23:31.617Z,21.25
2022-09-01T18:26:43.434Z,21.17
2022-09-01T18:29:52.082Z,21.16
2022-09-01T18:33:09.884Z,21.05
2022-09-01T18:36:30.270Z,20.98
2022-09-01T18:39:52.510Z,20.96
2022-09-01T18:43:10.024Z,20.90
2022-09-01T18:46:29.481Z,20.83
2022-09-01T18:49:50.327Z,20.81
2022-09-01T18:53:13.402Z,20.73
2022-09-01T18:56:37.990Z,20.62
2022-09-01T19:00:09.925Z,20.49
2022-09-01T19:03:29.385Z,20.38
2022-09-01T19:06:52.291Z,20.26
2022-09-01T19:10:05.547Z,20.13
2022-09-01T19:13:28.890Z,20.00
2022-09-01T19:16:47.643Z,19.85
2022-09-01T19:19:59.274Z,19.74
2022-09-01T19:23:11.780Z,19.65
2022-09-01T19:26:23.961Z,19.55
2022-09-01T19:29:38.850Z,19.45
2022-09-01T19:32:50.009Z,19.37
2022-09-01T19:36:04.880Z,19.37
2022-09-01T19:39:16.342Z,19.33
2022-09-01T19:42:29.366Z,19.28
2022-09-01T19:45:57.726Z,19.25
2022-09-01T19:49:17.837Z,19.22
2022-09-01T19:52:30.592Z,19.15
2022-09-01T19:55:42.119Z,19.12
2022-09-01T19:58:59.939Z,19.14
2022-09-01T20:02:17.546Z,19.08
2022-09-01T20:05:32.609Z,19.10
2022-09-01T20:08:45.481Z,19.08
2022-09-01T20:11:56.759Z,19.04
2022-09-01T20:15:26.343Z,19.04
2022-09-01T20:18:45.831Z,19.01
2022-09-01T20:22:12.031Z,19.03
2022-09-01T20:25:25.020Z,18.97
2022-09-01T20:28:53.503Z,18.89
2022-09-01T20:32:09.160Z,18.82
2022-09-01T20:35:23.727Z,18.77
2022-09-01T20:38:56.545Z,18.66
2022-09-01T20:42:27.316Z,18.61
2022-09-01T20:45:42.217Z,18.59
2022-09-01T20:52:27.521Z,18.49
2022-09-01T20:59:14.881Z,18.34
2022-09-01T21:02:53.906Z,18.25
2022-09-01T21:06:19.793Z,18.22
2022-09-01T21:09:39.168Z,18.24
2022-09-01T21:13:06.089Z,18.22
2022-09-01T21:20:18.653Z,18.36
2022-09-01T21:23:41.608Z,18.39
2022-09-01T21:27:23.768Z,18.41
2022-09-01T21:30:52.278Z,18.35
2022-09-01T21:34:05.686Z,18.31
2022-09-01T21:37:24.248Z,18.25
2022-09-01T21:40:46.788Z,18.17
2022-09-01T21:44:24.803Z,18.08
2022-09-01T21:47:48.045Z,17.96
2022-09-01T21:50:55.031Z,17.90
2022-09-01T21:54:20.039Z,17.80
2022-09-01T21:57:35.561Z,17.71
2022-09-01T22:01:17.668Z,17.70
2022-09-01T22:04:44.614Z,17.68
2022-09-01T22:08:17.797Z,17.64
2022-09-01T22:11:30.596Z,17.63
2022-09-01T22:14:37.060Z,17.69
2022-09-01T22:17:47.799Z,17.77
2022-09-01T22:21:03.695Z,17.76
2022-09-01T22:24:13.510Z,17.76
2022-09-01T22:27:25.343Z,17.78
2022-09-01T22:30:32.117Z,17.78
2022-09-01T22:33:42.274Z,17.73
2022-09-01T22:36:52.089Z,17.67
2022-09-01T22:40:03.692Z,17.61
2022-09-01T22:43:10.195Z,17.52
2022-09-01T22:46:19.524Z,17.44
2022-09-01T22:49:30.470Z,17.43
2022-09-01T22:52:38.765Z,17.35
2022-09-01T22:55:49.946Z,17.27
2022-09-01T22:59:02.605Z,17.17
2022-09-01T23:02:10.948Z,17.09
2022-09-01T23:05:19.319Z,16.98
2022-09-01T23:08:25.797Z,16.92
2022-09-01T23:11:32.874Z,16.84
2022-09-01T23:14:39.089Z,16.77
2022-09-01T23:17:49.809Z,16.69
2022-09-01T23:20:57.827Z,16.62
2022-09-01T23:24:04.707Z,16.59
2022-09-01T23:27:17.321Z,16.52
2022-09-01T23:30:24.722Z,16.50
2022-09-01T23:33:32.698Z,16.37
2022-09-01T23:36:40.988Z,16.38
2022-09-01T23:39:47.078Z,16.37
2022-09-01T23:42:54.187Z,16.36
2022-09-01T23:46:02.807Z,16.25
2022-09-01T23:49:09.870Z,16.19
2022-09-01T23:52:19.337Z,16.09
2022-09-01T23:55:27.761Z,15.97
2022-09-01T23:58:35.948Z,15.98
